sensor_id;sensor_type;location;lat;lon;timestamp;temperature;humidity
44435;DHT22;30138;20.964;105.830;2023-04-19T00:02:29;28.50;99.90
44435;DHT22;30138;20.964;105.830;2023-04-19T00:07:37;28.50;99.90
44435;DHT22;30138;20.964;105.830;2023-04-19T00:12:45;28.60;99.90
44435;DHT22;30138;20.964;105.830;2023-04-19T00:17:51;28.60;99.90
44435;DHT22;30138;20.964;105.830;2023-04-19T00:22:58;28.50;99.90
44435;DHT22;30138;20.964;105.830;2023-04-19T00:28:07;28.50;99.90
44435;DHT22;30138;20.964;105.830;2023-04-19T00:33:14;28.50;99.90
44435;DHT22;30138;20.964;105.830;2023-04-19T00:38:21;28.60;99.90
44435;DHT22;30138;20.964;105.830;2023-04-19T00:43:31;28.50;99.90
44435;DHT22;30138;20.964;105.830;2023-04-19T00:48:39;28.50;99.90
44435;DHT22;30138;20.964;105.830;2023-04-19T00:53:48;28.60;99.90
44435;DHT22;30138;20.964;105.830;2023-04-19T00:58:56;28.50;99.90
44435;DHT22;30138;20.964;105.830;2023-04-19T01:04:03;28.50;99.90
44435;DHT22;30138;20.964;105.830;2023-04-19T01:09:10;28.60;99.90
44435;DHT22;30138;20.964;105.830;2023-04-19T01:14:18;28.50;99.90
44435;DHT22;30138;20.964;105.830;2023-04-19T01:19:25;28.50;99.90
44435;DHT22;30138;20.964;105.830;2023-04-19T01:24:34;28.60;99.90
44435;DHT22;30138;20.964;105.830;2023-04-19T01:29:40;28.60;99.90
44435;DHT22;30138;20.964;105.830;2023-04-19T01:34:48;28.60;99.90
44435;DHT22;30138;20.964;105.830;2023-04-19T01:39:57;28.60;99.90
44435;DHT22;30138;20.964;105.830;2023-04-19T01:45:04;28.60;99.90
44435;DHT22;30138;20.964;105.830;2023-04-19T01:50:12;28.60;99.90
44435;DHT22;30138;20.964;105.830;2023-04-19T01:55:20;28.60;99.90
44435;DHT22;30138;20.964;105.830;2023-04-19T02:00:28;28.60;99.90
44435;DHT22;30138;20.964;105.830;2023-04-19T02:05:39;28.70;99.90
44435;DHT22;30138;20.964;105.830;2023-04-19T02:10:48;28.70;99.90
44435;DHT22;30138;20.964;105.830;2023-04-19T02:15:56;28.60;99.90
44435;DHT22;30138;20.964;105.830;2023-04-19T02:21:03;28.60;99.90
44435;DHT22;30138;20.964;105.830;2023-04-19T02:26:13;28.60;99.90
44435;DHT22;30138;20.964;105.830;2023-04-19T02:31:20;28.70;99.90
44435;DHT22;30138;20.964;105.830;2023-04-19T02:36:27;28.70;99.90
44435;DHT22;30138;20.964;105.830;2023-04-19T02:41:41;28.70;99.90
44435;DHT22;30138;20.964;105.830;2023-04-19T02:46:49;28.80;99.90
44435;DHT22;30138;20.964;105.830;2023-04-19T02:51:57;28.80;99.90
44435;DHT22;30138;20.964;105.830;2023-04-19T02:57:05;28.80;99.90
44435;DHT22;30138;20.964;105.830;2023-04-19T03:02:13;28.90;99.90
44435;DHT22;30138;20.964;105.830;2023-04-19T03:07:20;28.90;99.90
44435;DHT22;30138;20.964;105.830;2023-04-19T03:12:29;28.90;99.90
44435;DHT22;30138;20.964;105.830;2023-04-19T03:17:36;28.90;99.90
44435;DHT22;30138;20.964;105.830;2023-04-19T03:22:43;28.90;99.90
44435;DHT22;30138;20.964;105.830;2023-04-19T03:27:52;28.90;99.90
44435;DHT22;30138;20.964;105.830;2023-04-19T03:33:20;29.00;99.90
44435;DHT22;30138;20.964;105.830;2023-04-19T03:38:29;29.00;99.90
44435;DHT22;30138;20.964;105.830;2023-04-19T03:43:40;29.00;99.90
44435;DHT22;30138;20.964;105.830;2023-04-19T03:48:46;29.00;99.90
44435;DHT22;30138;20.964;105.830;2023-04-19T03:53:55;29.00;99.90
44435;DHT22;30138;20.964;105.830;2023-04-19T03:59:06;29.00;99.90
44435;DHT22;30138;20.964;105.830;2023-04-19T04:04:16;29.10;99.90
44435;DHT22;30138;20.964;105.830;2023-04-19T04:09:23;29.10;99.90
44435;DHT22;30138;20.964;105.830;2023-04-19T04:14:32;29.00;99.90
44435;DHT22;30138;20.964;105.830;2023-04-19T04:19:42;29.00;99.90
44435;DHT22;30138;20.964;105.830;2023-04-19T04:24:50;29.00;99.90
44435;DHT22;30138;20.964;105.830;2023-04-19T04:30:09;29.10;99.90
44435;DHT22;30138;20.964;105.830;2023-04-19T04:35:16;29.10;99.90
44435;DHT22;30138;20.964;105.830;2023-04-19T04:40:32;29.10;99.90
44435;DHT22;30138;20.964;105.830;2023-04-19T04:45:41;29.20;99.90
44435;DHT22;30138;20.964;105.830;2023-04-19T04:50:49;29.20;99.90
44435;DHT22;30138;20.964;105.830;2023-04-19T04:55:57;29.20;99.90
44435;DHT22;30138;20.964;105.830;2023-04-19T05:01:11;29.30;99.90
44435;DHT22;30138;20.964;105.830;2023-04-19T05:06:22;29.30;99.90
44435;DHT22;30138;20.964;105.830;2023-04-19T05:11:30;29.30;99.90
44435;DHT22;30138;20.964;105.830;2023-04-19T05:16:39;29.40;99.90
44435;DHT22;30138;20.964;105.830;2023-04-19T05:21:46;29.30;99.90
44435;DHT22;30138;20.964;105.830;2023-04-19T05:26:53;29.40;99.90
44435;DHT22;30138;20.964;105.830;2023-04-19T05:32:02;29.40;99.90
44435;DHT22;30138;20.964;105.830;2023-04-19T05:37:18;29.40;99.90
44435;DHT22;30138;20.964;105.830;2023-04-19T05:42:26;29.50;99.90
44435;DHT22;30138;20.964;105.830;2023-04-19T05:47:35;29.50;99.90
44435;DHT22;30138;20.964;105.830;2023-04-19T05:53:05;29.50;99.90
44435;DHT22;30138;20.964;105.830;2023-04-19T05:58:11;29.50;99.90
44435;DHT22;30138;20.964;105.830;2023-04-19T06:03:21;29.50;99.90
44435;DHT22;30138;20.964;105.830;2023-04-19T06:08:30;29.50;99.90
44435;DHT22;30138;20.964;105.830;2023-04-19T06:13:37;29.50;99.90
44435;DHT22;30138;20.964;105.830;2023-04-19T06:18:45;29.50;99.90
44435;DHT22;30138;20.964;105.830;2023-04-19T06:23:52;29.50;99.90
44435;DHT22;30138;20.964;105.830;2023-04-19T06:28:59;29.50;99.90
44435;DHT22;30138;20.964;105.830;2023-04-19T06:34:10;29.50;99.90
44435;DHT22;30138;20.964;105.830;2023-04-19T06:39:18;29.50;99.90
44435;DHT22;30138;20.964;105.830;2023-04-19T06:44:25;29.50;99.90
44435;DHT22;30138;20.964;105.830;2023-04-19T06:49:34;29.50;99.90
44435;DHT22;30138;20.964;105.830;2023-04-19T06:54:45;29.50;99.90
44435;DHT22;30138;20.964;105.830;2023-04-19T06:59:54;29.60;99.90
44435;DHT22;30138;20.964;105.830;2023-04-19T07:05:03;29.60;99.90
44435;DHT22;30138;20.964;105.830;2023-04-19T07:10:12;29.60;99.90
44435;DHT22;30138;20.964;105.830;2023-04-19T07:15:20;29.70;99.90
44435;DHT22;30138;20.964;105.830;2023-04-19T07:20:29;29.70;99.90
44435;DHT22;30138;20.964;105.830;2023-04-19T07:25:36;29.70;99.90
44435;DHT22;30138;20.964;105.830;2023-04-19T07:30:44;29.80;99.90
44435;DHT22;30138;20.964;105.830;2023-04-19T07:35:53;29.80;99.90
44435;DHT22;30138;20.964;105.830;2023-04-19T07:41:02;29.90;99.90
44435;DHT22;30138;20.964;105.830;2023-04-19T07:46:12;29.90;99.90
44435;DHT22;30138;20.964;105.830;2023-04-19T07:51:23;29.90;99.90
44435;DHT22;30138;20.964;105.830;2023-04-19T07:56:30;29.90;99.90
44435;DHT22;30138;20.964;105.830;2023-04-19T08:01:38;29.90;99.90
44435;DHT22;30138;20.964;105.830;2023-04-19T08:06:47;30.00;99.90
44435;DHT22;30138;20.964;105.830;2023-04-19T08:11:56;30.00;99.90
44435;DHT22;30138;20.964;105.830;2023-04-19T08:17:04;30.00;99.90
44435;DHT22;30138;20.964;105.830;2023-04-19T08:22:14;29.90;99.90
44435;DHT22;30138;20.964;105.830;2023-04-19T08:27:22;30.00;99.90
44435;DHT22;30138;20.964;105.830;2023-04-19T08:32:32;30.00;99.90
44435;DHT22;30138;20.964;105.830;2023-04-19T08:37:41;29.90;99.90
44435;DHT22;30138;20.964;105.830;2023-04-19T08:42:51;29.90;99.90
44435;DHT22;30138;20.964;105.830;2023-04-19T08:47:58;29.90;99.90
44435;DHT22;30138;20.964;105.830;2023-04-19T08:53:10;29.90;99.90
44435;DHT22;30138;20.964;105.830;2023-04-19T08:58:17;29.90;99.90
44435;DHT22;30138;20.964;105.830;2023-04-19T09:03:25;29.90;99.90
44435;DHT22;30138;20.964;105.830;2023-04-19T09:08:34;29.90;99.90
44435;DHT22;30138;20.964;105.830;2023-04-19T09:13:41;29.90;99.90
44435;DHT22;30138;20.964;105.830;2023-04-19T09:18:55;29.90;99.90
44435;DHT22;30138;20.964;105.830;2023-04-19T09:24:06;29.90;99.90
44435;DHT22;30138;20.964;105.830;2023-04-19T09:29:17;30.00;99.90
44435;DHT22;30138;20.964;105.830;2023-04-19T09:34:24;30.00;99.90
44435;DHT22;30138;20.964;105.830;2023-04-19T09:39:34;30.00;99.90
44435;DHT22;30138;20.964;105.830;2023-04-19T09:44:41;30.00;99.90
44435;DHT22;30138;20.964;105.830;2023-04-19T09:50:08;30.00;99.90
44435;DHT22;30138;20.964;105.830;2023-04-19T09:55:19;30.00;99.90
44435;DHT22;30138;20.964;105.830;2023-04-19T10:00:27;30.00;99.90
44435;DHT22;30138;20.964;105.830;2023-04-19T10:05:35;30.00;99.90
44435;DHT22;30138;20.964;105.830;2023-04-19T10:10:45;30.00;99.90
44435;DHT22;30138;20.964;105.830;2023-04-19T10:15:58;30.00;99.90
44435;DHT22;30138;20.964;105.830;2023-04-19T10:21:07;30.00;99.90
44435;DHT22;30138;20.964;105.830;2023-04-19T10:26:18;29.90;99.90
44435;DHT22;30138;20.964;105.830;2023-04-19T10:31:26;30.00;99.90
44435;DHT22;30138;20.964;105.830;2023-04-19T10:36:34;30.00;99.90
44435;DHT22;30138;20.964;105.830;2023-04-19T10:41:57;30.00;99.90
44435;DHT22;30138;20.964;105.830;2023-04-19T10:47:06;30.00;99.90
44435;DHT22;30138;20.964;105.830;2023-04-19T10:52:26;30.00;99.90
44435;DHT22;30138;20.964;105.830;2023-04-19T10:58:05;30.20;99.90
44435;DHT22;30138;20.964;105.830;2023-04-19T11:09:47;30.30;99.90
44435;DHT22;30138;20.964;105.830;2023-04-19T11:14:59;30.30;99.90
44435;DHT22;30138;20.964;105.830;2023-04-19T11:20:07;30.30;99.90
44435;DHT22;30138;20.964;105.830;2023-04-19T11:25:18;30.30;99.90
44435;DHT22;30138;20.964;105.830;2023-04-19T11:30:43;30.30;99.90
44435;DHT22;30138;20.964;105.830;2023-04-19T11:36:27;30.40;99.90
44435;DHT22;30138;20.964;105.830;2023-04-19T11:41:48;30.40;99.90
44435;DHT22;30138;20.964;105.830;2023-04-19T11:53:24;30.40;99.90
44435;DHT22;30138;20.964;105.830;2023-04-19T11:58:42;30.30;99.90
44435;DHT22;30138;20.964;105.830;2023-04-19T12:03:54;30.20;99.90
44435;DHT22;30138;20.964;105.830;2023-04-19T12:15:09;30.20;99.90
44435;DHT22;30138;20.964;105.830;2023-04-19T12:21:09;30.10;99.90
44435;DHT22;30138;20.964;105.830;2023-04-19T12:26:56;30.10;99.90
44435;DHT22;30138;20.964;105.830;2023-04-19T12:32:08;30.10;99.90
44435;DHT22;30138;20.964;105.830;2023-04-19T12:37:19;30.10;99.90
44435;DHT22;30138;20.964;105.830;2023-04-19T12:42:29;30.00;99.90
44435;DHT22;30138;20.964;105.830;2023-04-19T12:47:37;30.00;99.90
44435;DHT22;30138;20.964;105.830;2023-04-19T12:52:51;30.00;99.90
44435;DHT22;30138;20.964;105.830;2023-04-19T12:58:11;30.00;99.90
44435;DHT22;30138;20.964;105.830;2023-04-19T13:03:54;29.90;99.90
44435;DHT22;30138;20.964;105.830;2023-04-19T13:10:01;29.90;99.90
44435;DHT22;30138;20.964;105.830;2023-04-19T13:16:12;29.90;99.90
44435;DHT22;30138;20.964;105.830;2023-04-19T13:28:10;29.80;99.90
44435;DHT22;30138;20.964;105.830;2023-04-19T13:34:09;29.70;99.90
44435;DHT22;30138;20.964;105.830;2023-04-19T13:39:59;29.70;99.90
44435;DHT22;30138;20.964;105.830;2023-04-19T13:47:17;29.70;99.90
44435;DHT22;30138;20.964;105.830;2023-04-19T13:52:46;29.60;99.90
44435;DHT22;30138;20.964;105.830;2023-04-19T13:58:00;29.60;99.90
44435;DHT22;30138;20.964;105.830;2023-04-19T14:03:13;29.50;99.90
44435;DHT22;30138;20.964;105.830;2023-04-19T14:08:31;29.60;99.90
44435;DHT22;30138;20.964;105.830;2023-04-19T14:13:46;29.60;99.90
44435;DHT22;30138;20.964;105.830;2023-04-19T14:18:58;29.50;99.90
44435;DHT22;30138;20.964;105.830;2023-04-19T14:24:30;29.50;99.90
44435;DHT22;30138;20.964;105.830;2023-04-19T14:29:43;29.50;99.90
44435;DHT22;30138;20.964;105.830;2023-04-19T14:34:53;29.60;99.90
44435;DHT22;30138;20.964;105.830;2023-04-19T14:40:12;29.60;99.90
44435;DHT22;30138;20.964;105.830;2023-04-19T14:45:21;29.70;99.90
44435;DHT22;30138;20.964;105.830;2023-04-19T14:50:32;29.70;99.90
44435;DHT22;30138;20.964;105.830;2023-04-19T14:55:48;29.70;99.90
44435;DHT22;30138;20.964;105.830;2023-04-19T15:00:59;29.80;99.90
44435;DHT22;30138;20.964;105.830;2023-04-19T15:06:19;29.80;99.90
44435;DHT22;30138;20.964;105.830;2023-04-19T15:11:29;29.70;99.90
44435;DHT22;30138;20.964;105.830;2023-04-19T15:16:37;29.70;99.90
44435;DHT22;30138;20.964;105.830;2023-04-19T15:21:47;29.70;99.90
44435;DHT22;30138;20.964;105.830;2023-04-19T15:27:10;29.70;99.90
44435;DHT22;30138;20.964;105.830;2023-04-19T15:32:21;29.70;99.90
44435;DHT22;30138;20.964;105.830;2023-04-19T15:37:29;29.70;99.90
44435;DHT22;30138;20.964;105.830;2023-04-19T15:42:44;29.60;99.90
44435;DHT22;30138;20.964;105.830;2023-04-19T15:47:54;29.60;99.90
44435;DHT22;30138;20.964;105.830;2023-04-19T15:53:02;29.60;99.90
44435;DHT22;30138;20.964;105.830;2023-04-19T15:58:17;29.60;99.90
44435;DHT22;30138;20.964;105.830;2023-04-19T16:03:25;29.60;99.90
44435;DHT22;30138;20.964;105.830;2023-04-19T16:08:35;29.60;99.90
44435;DHT22;30138;20.964;105.830;2023-04-19T16:13:48;29.60;99.90
44435;DHT22;30138;20.964;105.830;2023-04-19T16:18:59;29.50;99.90
44435;DHT22;30138;20.964;105.830;2023-04-19T16:24:07;29.50;99.90
44435;DHT22;30138;20.964;105.830;2023-04-19T16:29:17;29.50;99.90
44435;DHT22;30138;20.964;105.830;2023-04-19T16:34:25;29.40;99.90
44435;DHT22;30138;20.964;105.830;2023-04-19T16:39:32;29.40;99.90
44435;DHT22;30138;20.964;105.830;2023-04-19T16:44:43;29.40;99.90
44435;DHT22;30138;20.964;105.830;2023-04-19T16:49:53;29.40;99.90
44435;DHT22;30138;20.964;105.830;2023-04-19T16:55:00;29.40;99.90
44435;DHT22;30138;20.964;105.830;2023-04-19T17:00:11;29.40;99.90
44435;DHT22;30138;20.964;105.830;2023-04-19T17:05:19;29.30;99.90
44435;DHT22;30138;20.964;105.830;2023-04-19T17:10:27;29.40;99.90
44435;DHT22;30138;20.964;105.830;2023-04-19T17:15:37;29.30;99.90
44435;DHT22;30138;20.964;105.830;2023-04-19T17:20:44;29.30;99.90
44435;DHT22;30138;20.964;105.830;2023-04-19T17:25:53;29.30;99.90
44435;DHT22;30138;20.964;105.830;2023-04-19T17:31:02;29.30;99.90
44435;DHT22;30138;20.964;105.830;2023-04-19T17:36:09;29.30;99.90
44435;DHT22;30138;20.964;105.830;2023-04-19T17:41:19;29.30;99.90
44435;DHT22;30138;20.964;105.830;2023-04-19T17:46:29;29.20;99.90
44435;DHT22;30138;20.964;105.830;2023-04-19T17:51:36;29.30;99.90
44435;DHT22;30138;20.964;105.830;2023-04-19T17:56:44;29.30;99.90
44435;DHT22;30138;20.964;105.830;2023-04-19T18:01:53;29.30;99.90
44435;DHT22;30138;20.964;105.830;2023-04-19T18:07:01;29.20;99.90
44435;DHT22;30138;20.964;105.830;2023-04-19T18:12:08;29.20;99.90
44435;DHT22;30138;20.964;105.830;2023-04-19T18:17:18;29.20;99.90
44435;DHT22;30138;20.964;105.830;2023-04-19T18:22:26;29.20;99.90
44435;DHT22;30138;20.964;105.830;2023-04-19T18:27:33;29.10;99.90
44435;DHT22;30138;20.964;105.830;2023-04-19T18:32:42;29.20;99.90
44435;DHT22;30138;20.964;105.830;2023-04-19T18:37:49;29.10;99.90
44435;DHT22;30138;20.964;105.830;2023-04-19T18:42:57;29.10;99.90
44435;DHT22;30138;20.964;105.830;2023-04-19T18:48:06;29.10;99.90
44435;DHT22;30138;20.964;105.830;2023-04-19T18:53:14;29.10;99.90
44435;DHT22;30138;20.964;105.830;2023-04-19T18:58:22;29.10;99.90
44435;DHT22;30138;20.964;105.830;2023-04-19T19:03:31;29.10;99.90
44435;DHT22;30138;20.964;105.830;2023-04-19T19:08:38;29.10;99.90
44435;DHT22;30138;20.964;105.830;2023-04-19T19:13:46;29.00;99.90
44435;DHT22;30138;20.964;105.830;2023-04-19T19:18:55;29.00;99.90
44435;DHT22;30138;20.964;105.830;2023-04-19T19:24:03;29.00;99.90
44435;DHT22;30138;20.964;105.830;2023-04-19T19:29:10;29.10;99.90
44435;DHT22;30138;20.964;105.830;2023-04-19T19:34:19;29.00;99.90
44435;DHT22;30138;20.964;105.830;2023-04-19T19:39:26;29.00;99.90
44435;DHT22;30138;20.964;105.830;2023-04-19T19:44:33;29.00;99.90
44435;DHT22;30138;20.964;105.830;2023-04-19T19:49:42;29.00;99.90
44435;DHT22;30138;20.964;105.830;2023-04-19T19:54:50;29.00;99.90
44435;DHT22;30138;20.964;105.830;2023-04-19T19:59:58;29.00;99.90
44435;DHT22;30138;20.964;105.830;2023-04-19T20:05:17;29.00;99.90
44435;DHT22;30138;20.964;105.830;2023-04-19T20:10:24;29.00;99.90
44435;DHT22;30138;20.964;105.830;2023-04-19T20:15:32;29.00;99.90
44435;DHT22;30138;20.964;105.830;2023-04-19T20:20:42;29.00;99.90
44435;DHT22;30138;20.964;105.830;2023-04-19T20:25:50;29.00;99.90
44435;DHT22;30138;20.964;105.830;2023-04-19T20:30:57;29.00;99.90
44435;DHT22;30138;20.964;105.830;2023-04-19T20:36:07;29.00;99.90
44435;DHT22;30138;20.964;105.830;2023-04-19T20:41:15;29.00;99.90
44435;DHT22;30138;20.964;105.830;2023-04-19T20:46:24;29.00;99.90
44435;DHT22;30138;20.964;105.830;2023-04-19T20:51:33;29.00;99.90
44435;DHT22;30138;20.964;105.830;2023-04-19T20:56:40;29.00;99.90
44435;DHT22;30138;20.964;105.830;2023-04-19T21:01:48;29.00;99.90
44435;DHT22;30138;20.964;105.830;2023-04-19T21:06:57;29.00;99.90
44435;DHT22;30138;20.964;105.830;2023-04-19T21:12:05;29.00;99.90
44435;DHT22;30138;20.964;105.830;2023-04-19T21:17:12;29.00;99.90
44435;DHT22;30138;20.964;105.830;2023-04-19T21:22:22;29.00;99.90
44435;DHT22;30138;20.964;105.830;2023-04-19T21:27:29;29.00;99.90
44435;DHT22;30138;20.964;105.830;2023-04-19T21:32:36;29.00;99.90
44435;DHT22;30138;20.964;105.830;2023-04-19T21:37:46;29.00;99.90
44435;DHT22;30138;20.964;105.830;2023-04-19T21:42:53;29.00;99.90
44435;DHT22;30138;20.964;105.830;2023-04-19T21:48:00;29.00;99.90
44435;DHT22;30138;20.964;105.830;2023-04-19T21:53:09;28.90;99.90
44435;DHT22;30138;20.964;105.830;2023-04-19T21:58:17;28.90;99.90
44435;DHT22;30138;20.964;105.830;2023-04-19T22:03:24;28.90;99.90
44435;DHT22;30138;20.964;105.830;2023-04-19T22:08:34;28.90;99.90
44435;DHT22;30138;20.964;105.830;2023-04-19T22:13:41;28.90;99.90
44435;DHT22;30138;20.964;105.830;2023-04-19T22:18:48;28.90;99.90
44435;DHT22;30138;20.964;105.830;2023-04-19T22:23:58;28.90;99.90
44435;DHT22;30138;20.964;105.830;2023-04-19T22:29:05;28.90;99.90
44435;DHT22;30138;20.964;105.830;2023-04-19T22:34:12;28.90;99.90
44435;DHT22;30138;20.964;105.830;2023-04-19T22:39:22;28.90;99.90
44435;DHT22;30138;20.964;105.830;2023-04-19T22:44:29;28.90;99.90
44435;DHT22;30138;20.964;105.830;2023-04-19T22:49:37;28.90;99.90
44435;DHT22;30138;20.964;105.830;2023-04-19T22:54:47;28.90;99.90
44435;DHT22;30138;20.964;105.830;2023-04-19T22:59:55;28.90;99.90
44435;DHT22;30138;20.964;105.830;2023-04-19T23:05:07;28.90;99.90
44435;DHT22;30138;20.964;105.830;2023-04-19T23:10:17;28.90;99.90
44435;DHT22;30138;20.964;105.830;2023-04-19T23:15:24;28.90;99.90
44435;DHT22;30138;20.964;105.830;2023-04-19T23:20:32;28.80;99.90
44435;DHT22;30138;20.964;105.830;2023-04-19T23:25:45;28.90;99.90
44435;DHT22;30138;20.964;105.830;2023-04-19T23:30:53;28.90;99.90
44435;DHT22;30138;20.964;105.830;2023-04-19T23:36:00;28.90;99.90
44435;DHT22;30138;20.964;105.830;2023-04-19T23:41:09;28.90;99.90
44435;DHT22;30138;20.964;105.830;2023-04-19T23:46:16;28.90;99.90
44435;DHT22;30138;20.964;105.830;2023-04-19T23:51:24;28.90;99.90
44435;DHT22;30138;20.964;105.830;2023-04-19T23:56:35;28.80;99.90
